sensor_id;sensor_type;location;lat;lon;timestamp;pressure;altitude;pressure_sealevel;temperature;humidity
43488;BME280;29078;41.932;25.554;2023-06-26T00:01:14;98996.66;;;24.29;63.27
43488;BME280;29078;41.932;25.554;2023-06-26T00:03:39;98989.88;;;24.31;62.86
43488;BME280;29078;41.932;25.554;2023-06-26T00:06:05;98963.78;;;24.17;63.00
43488;BME280;29078;41.932;25.554;2023-06-26T00:08:30;99015.91;;;24.56;62.58
43488;BME280;29078;41.932;25.554;2023-06-26T00:10:56;99038.72;;;24.69;62.63
43488;BME280;29078;41.932;25.554;2023-06-26T00:13:23;99008.88;;;24.55;62.41
43488;BME280;29078;41.932;25.554;2023-06-26T00:15:48;98977.72;;;24.34;62.35
43488;BME280;29078;41.932;25.554;2023-06-26T00:18:14;98933.59;;;24.15;62.21
43488;BME280;29078;41.932;25.554;2023-06-26T00:20:39;98983.63;;;24.36;61.93
43488;BME280;29078;41.932;25.554;2023-06-26T00:23:04;99011.31;;;24.57;61.98
43488;BME280;29078;41.932;25.554;2023-06-26T00:25:33;98985.84;;;24.29;62.24
43488;BME280;29078;41.932;25.554;2023-06-26T00:27:58;99020.72;;;24.59;62.46
43488;BME280;29078;41.932;25.554;2023-06-26T00:30:24;99027.44;;;24.62;62.50
43488;BME280;29078;41.932;25.554;2023-06-26T00:32:49;99025.84;;;24.61;62.82
43488;BME280;29078;41.932;25.554;2023-06-26T00:35:15;98982.03;;;24.35;62.98
43488;BME280;29078;41.932;25.554;2023-06-26T00:37:41;98959.72;;;24.19;62.68
43488;BME280;29078;41.932;25.554;2023-06-26T00:40:07;98946.84;;;24.11;62.07
43488;BME280;29078;41.932;25.554;2023-06-26T00:42:32;98993.34;;;24.37;61.55
43488;BME280;29078;41.932;25.554;2023-06-26T00:44:58;98964.97;;;24.00;61.69
43488;BME280;29078;41.932;25.554;2023-06-26T00:47:23;99014.09;;;24.42;61.97
43488;BME280;29078;41.932;25.554;2023-06-26T00:49:49;98973.50;;;24.18;61.79
43488;BME280;29078;41.932;25.554;2023-06-26T00:52:15;99005.47;;;24.39;62.10
43488;BME280;29078;41.932;25.554;2023-06-26T00:54:42;99000.31;;;24.43;61.72
43488;BME280;29078;41.932;25.554;2023-06-26T00:57:07;99006.22;;;24.45;61.85
43488;BME280;29078;41.932;25.554;2023-06-26T00:59:34;99003.81;;;24.44;62.00
43488;BME280;29078;41.932;25.554;2023-06-26T01:01:59;98967.53;;;24.21;61.61
43488;BME280;29078;41.932;25.554;2023-06-26T01:04:25;98997.94;;;24.36;61.98
43488;BME280;29078;41.932;25.554;2023-06-26T01:06:53;98936.97;;;23.96;61.74
43488;BME280;29078;41.932;25.554;2023-06-26T01:09:20;98984.25;;;24.28;61.88
43488;BME280;29078;41.932;25.554;2023-06-26T01:11:46;98926.19;;;23.96;62.15
43488;BME280;29078;41.932;25.554;2023-06-26T01:14:12;98970.28;;;24.16;61.72
43488;BME280;29078;41.932;25.554;2023-06-26T01:16:39;98961.69;;;24.08;61.31
43488;BME280;29078;41.932;25.554;2023-06-26T01:19:18;98984.78;;;24.25;61.47
43488;BME280;29078;41.932;25.554;2023-06-26T01:21:51;98928.94;;;23.86;61.50
43488;BME280;29078;41.932;25.554;2023-06-26T01:24:19;98995.56;;;24.25;61.24
43488;BME280;29078;41.932;25.554;2023-06-26T01:26:53;98986.13;;;24.22;61.33
43488;BME280;29078;41.932;25.554;2023-06-26T01:29:19;98934.06;;;23.88;61.26
43488;BME280;29078;41.932;25.554;2023-06-26T01:31:48;98977.03;;;24.13;61.48
43488;BME280;29078;41.932;25.554;2023-06-26T01:34:16;98984.31;;;24.13;61.49
43488;BME280;29078;41.932;25.554;2023-06-26T01:36:44;98986.75;;;24.14;61.60
43488;BME280;29078;41.932;25.554;2023-06-26T01:39:09;98967.13;;;24.03;61.30
43488;BME280;29078;41.932;25.554;2023-06-26T01:41:35;98917.41;;;23.75;61.23
43488;BME280;29078;41.932;25.554;2023-06-26T01:46:39;98875.00;;;23.37;60.99
43488;BME280;29078;41.932;25.554;2023-06-26T01:49:43;98980.03;;;24.06;61.73
43488;BME280;29078;41.932;25.554;2023-06-26T01:52:21;98979.25;;;24.06;61.01
43488;BME280;29078;41.932;25.554;2023-06-26T01:55:15;98978.44;;;24.05;60.89
43488;BME280;29078;41.932;25.554;2023-06-26T01:57:44;98979.88;;;23.93;60.88
43488;BME280;29078;41.932;25.554;2023-06-26T02:00:11;98941.75;;;23.60;61.09
43488;BME280;29078;41.932;25.554;2023-06-26T02:02:37;98898.50;;;23.26;61.10
43488;BME280;29078;41.932;25.554;2023-06-26T02:05:03;98968.09;;;23.68;61.15
43488;BME280;29078;41.932;25.554;2023-06-26T02:07:28;98972.16;;;23.66;61.29
43488;BME280;29078;41.932;25.554;2023-06-26T02:09:54;98964.06;;;23.66;61.32
43488;BME280;29078;41.932;25.554;2023-06-26T02:12:19;98917.88;;;23.33;61.51
43488;BME280;29078;41.932;25.554;2023-06-26T02:14:44;98904.13;;;23.30;61.58
43488;BME280;29078;41.932;25.554;2023-06-26T02:17:10;98994.44;;;23.92;61.19
43488;BME280;29078;41.932;25.554;2023-06-26T02:19:35;98995.50;;;23.91;61.10
43488;BME280;29078;41.932;25.554;2023-06-26T02:22:01;98995.25;;;23.87;61.08
43488;BME280;29078;41.932;25.554;2023-06-26T02:24:26;98999.28;;;23.90;61.19
43488;BME280;29078;41.932;25.554;2023-06-26T02:26:55;98938.53;;;23.48;61.24
43488;BME280;29078;41.932;25.554;2023-06-26T02:29:21;98995.25;;;23.87;61.14
43488;BME280;29078;41.932;25.554;2023-06-26T02:31:47;98994.75;;;23.85;61.00
43488;BME280;29078;41.932;25.554;2023-06-26T02:34:12;98978.09;;;23.68;61.00
43488;BME280;29078;41.932;25.554;2023-06-26T02:36:37;98986.41;;;23.76;61.25
43488;BME280;29078;41.932;25.554;2023-06-26T02:39:03;98922.41;;;23.43;60.86
43488;BME280;29078;41.932;25.554;2023-06-26T02:41:28;98910.31;;;23.35;60.93
43488;BME280;29078;41.932;25.554;2023-06-26T02:43:53;98979.16;;;23.67;60.56
43488;BME280;29078;41.932;25.554;2023-06-26T02:46:19;98990.19;;;23.75;60.79
43488;BME280;29078;41.932;25.554;2023-06-26T02:48:44;98947.72;;;23.47;60.87
43488;BME280;29078;41.932;25.554;2023-06-26T02:51:09;99009.81;;;23.91;61.06
43488;BME280;29078;41.932;25.554;2023-06-26T02:53:35;98991.25;;;23.85;60.60
43488;BME280;29078;41.932;25.554;2023-06-26T02:56:00;98985.59;;;23.76;60.89
43488;BME280;29078;41.932;25.554;2023-06-26T02:58:26;98968.44;;;23.57;60.73
43488;BME280;29078;41.932;25.554;2023-06-26T03:00:51;98979.69;;;23.69;60.68
43488;BME280;29078;41.932;25.554;2023-06-26T03:03:18;99024.06;;;23.97;60.88
43488;BME280;29078;41.932;25.554;2023-06-26T03:05:44;98971.09;;;23.67;60.67
43488;BME280;29078;41.932;25.554;2023-06-26T03:08:10;98985.88;;;23.80;60.57
43488;BME280;29078;41.932;25.554;2023-06-26T03:10:35;98944.72;;;23.54;60.28
43488;BME280;29078;41.932;25.554;2023-06-26T03:13:00;99024.81;;;24.07;60.26
43488;BME280;29078;41.932;25.554;2023-06-26T03:15:26;99000.34;;;23.94;60.43
43488;BME280;29078;41.932;25.554;2023-06-26T03:17:51;99014.84;;;24.03;60.44
43488;BME280;29078;41.932;25.554;2023-06-26T03:20:17;99050.94;;;24.12;60.61
43488;BME280;29078;41.932;25.554;2023-06-26T03:22:42;98949.03;;;23.55;60.50
43488;BME280;29078;41.932;25.554;2023-06-26T03:25:07;98963.31;;;23.60;60.82
43488;BME280;29078;41.932;25.554;2023-06-26T03:27:33;98979.69;;;23.69;60.68
43488;BME280;29078;41.932;25.554;2023-06-26T03:29:58;99040.75;;;24.04;60.84
43488;BME280;29078;41.932;25.554;2023-06-26T03:32:24;98985.88;;;23.74;60.79
43488;BME280;29078;41.932;25.554;2023-06-26T03:34:49;99018.16;;;23.90;61.07
43488;BME280;29078;41.932;25.554;2023-06-26T03:37:15;99041.59;;;23.94;61.07
43488;BME280;29078;41.932;25.554;2023-06-26T03:39:40;99038.06;;;23.99;61.55
43488;BME280;29078;41.932;25.554;2023-06-26T03:42:06;99009.84;;;23.86;61.13
43488;BME280;29078;41.932;25.554;2023-06-26T03:44:32;98996.94;;;23.73;61.10
43488;BME280;29078;41.932;25.554;2023-06-26T03:46:57;99035.13;;;23.95;61.17
43488;BME280;29078;41.932;25.554;2023-06-26T03:49:22;99039.44;;;23.96;61.23
43488;BME280;29078;41.932;25.554;2023-06-26T03:51:48;99032.16;;;23.97;61.36
43488;BME280;29078;41.932;25.554;2023-06-26T03:54:13;98910.66;;;23.19;61.23
43488;BME280;29078;41.932;25.554;2023-06-26T03:56:38;98999.59;;;23.83;61.22
43488;BME280;29078;41.932;25.554;2023-06-26T03:59:04;99022.97;;;23.98;61.18
43488;BME280;29078;41.932;25.554;2023-06-26T04:01:30;98991.22;;;23.90;60.96
43488;BME280;29078;41.932;25.554;2023-06-26T04:03:56;98982.59;;;23.88;61.27
43488;BME280;29078;41.932;25.554;2023-06-26T04:06:21;98991.25;;;23.85;61.00
43488;BME280;29078;41.932;25.554;2023-06-26T04:08:46;99015.94;;;24.02;60.82
43488;BME280;29078;41.932;25.554;2023-06-26T04:11:13;99033.72;;;24.08;61.03
43488;BME280;29078;41.932;25.554;2023-06-26T04:13:38;99028.78;;;24.20;60.95
43488;BME280;29078;41.932;25.554;2023-06-26T04:16:04;99012.66;;;24.10;60.77
43488;BME280;29078;41.932;25.554;2023-06-26T04:18:29;99007.56;;;24.03;60.43
43488;BME280;29078;41.932;25.554;2023-06-26T04:21:13;98985.00;;;23.89;60.52
43488;BME280;29078;41.932;25.554;2023-06-26T04:23:39;99056.47;;;24.41;60.26
43488;BME280;29078;41.932;25.554;2023-06-26T04:26:06;99055.38;;;24.42;60.09
43488;BME280;29078;41.932;25.554;2023-06-26T04:28:32;98995.41;;;24.06;59.98
43488;BME280;29078;41.932;25.554;2023-06-26T04:30:59;99061.53;;;24.48;60.28
43488;BME280;29078;41.932;25.554;2023-06-26T04:33:25;99002.19;;;24.03;60.20
43488;BME280;29078;41.932;25.554;2023-06-26T04:35:53;98969.06;;;23.93;60.22
43488;BME280;29078;41.932;25.554;2023-06-26T04:38:19;99042.44;;;24.39;59.93
43488;BME280;29078;41.932;25.554;2023-06-26T04:40:47;99049.44;;;24.40;60.32
43488;BME280;29078;41.932;25.554;2023-06-26T04:43:12;99003.66;;;24.25;59.78
43488;BME280;29078;41.932;25.554;2023-06-26T04:45:38;99005.28;;;24.26;59.82
43488;BME280;29078;41.932;25.554;2023-06-26T04:48:03;99047.47;;;24.56;60.01
43488;BME280;29078;41.932;25.554;2023-06-26T04:50:30;99045.31;;;24.58;59.88
43488;BME280;29078;41.932;25.554;2023-06-26T04:52:56;99063.59;;;24.66;59.70
43488;BME280;29078;41.932;25.554;2023-06-26T04:55:26;99016.06;;;24.31;59.80
43488;BME280;29078;41.932;25.554;2023-06-26T04:57:52;99031.56;;;24.49;59.53
43488;BME280;29078;41.932;25.554;2023-06-26T05:00:17;99043.44;;;24.53;59.61
43488;BME280;29078;41.932;25.554;2023-06-26T05:02:43;99034.25;;;24.54;59.63
43488;BME280;29078;41.932;25.554;2023-06-26T05:05:08;99019.16;;;24.48;59.22
43488;BME280;29078;41.932;25.554;2023-06-26T05:07:35;99036.59;;;24.66;59.34
43488;BME280;29078;41.932;25.554;2023-06-26T05:10:01;99064.22;;;24.87;59.60
43488;BME280;29078;41.932;25.554;2023-06-26T05:12:26;99054.00;;;24.84;59.45
43488;BME280;29078;41.932;25.554;2023-06-26T05:14:51;99053.47;;;24.82;59.69
43488;BME280;29078;41.932;25.554;2023-06-26T05:17:17;98988.44;;;24.44;59.42
43488;BME280;29078;41.932;25.554;2023-06-26T05:19:42;98982.75;;;24.46;59.23
43488;BME280;29078;41.932;25.554;2023-06-26T05:22:08;99062.50;;;25.01;59.45
43488;BME280;29078;41.932;25.554;2023-06-26T05:24:38;99061.44;;;25.02;59.00
43488;BME280;29078;41.932;25.554;2023-06-26T05:27:04;99043.72;;;24.86;59.14
43488;BME280;29078;41.932;25.554;2023-06-26T05:29:31;99071.66;;;25.05;59.31
43488;BME280;29078;41.932;25.554;2023-06-26T05:31:57;99068.09;;;25.10;59.19
43488;BME280;29078;41.932;25.554;2023-06-26T05:34:23;99078.06;;;25.14;58.91
43488;BME280;29078;41.932;25.554;2023-06-26T05:36:53;99047.94;;;24.97;58.51
43488;BME280;29078;41.932;25.554;2023-06-26T05:39:20;99089.63;;;25.20;58.67
43488;BME280;29078;41.932;25.554;2023-06-26T05:41:46;99085.25;;;25.24;58.02
43488;BME280;29078;41.932;25.554;2023-06-26T05:44:11;99071.63;;;25.10;57.68
43488;BME280;29078;41.932;25.554;2023-06-26T05:46:37;99068.56;;;25.17;57.88
43488;BME280;29078;41.932;25.554;2023-06-26T05:49:03;99039.31;;;24.95;57.93
43488;BME280;29078;41.932;25.554;2023-06-26T05:51:29;99082.03;;;25.22;57.85
43488;BME280;29078;41.932;25.554;2023-06-26T05:53:54;99028.38;;;24.81;57.84
43488;BME280;29078;41.932;25.554;2023-06-26T05:56:20;99069.97;;;25.14;57.74
43488;BME280;29078;41.932;25.554;2023-06-26T05:58:46;99088.75;;;25.29;57.80
43488;BME280;29078;41.932;25.554;2023-06-26T06:01:12;99082.53;;;25.29;57.87
43488;BME280;29078;41.932;25.554;2023-06-26T06:03:39;99084.03;;;25.40;57.72
43488;BME280;29078;41.932;25.554;2023-06-26T06:06:05;99065.75;;;25.32;57.60
43488;BME280;29078;41.932;25.554;2023-06-26T06:08:30;99086.94;;;25.49;57.41
43488;BME280;29078;41.932;25.554;2023-06-26T06:10:56;99090.78;;;25.43;57.82
43488;BME280;29078;41.932;25.554;2023-06-26T06:13:21;99080.47;;;25.45;57.73
43488;BME280;29078;41.932;25.554;2023-06-26T06:15:47;99030.00;;;25.11;57.64
43488;BME280;29078;41.932;25.554;2023-06-26T06:18:12;99023.03;;;25.05;57.67
43488;BME280;29078;41.932;25.554;2023-06-26T06:20:37;99085.03;;;25.49;57.40
43488;BME280;29078;41.932;25.554;2023-06-26T06:23:03;99091.25;;;25.50;57.89
43488;BME280;29078;41.932;25.554;2023-06-26T06:25:28;99100.63;;;25.57;57.66
43488;BME280;29078;41.932;25.554;2023-06-26T06:27:54;99093.84;;;25.60;57.50
43488;BME280;29078;41.932;25.554;2023-06-26T06:30:19;99082.09;;;25.46;57.40
43488;BME280;29078;41.932;25.554;2023-06-26T06:32:44;99094.19;;;25.53;57.20
43488;BME280;29078;41.932;25.554;2023-06-26T06:35:11;99015.56;;;24.92;57.92
43488;BME280;29078;41.932;25.554;2023-06-26T06:37:37;99100.25;;;25.40;58.21
43488;BME280;29078;41.932;25.554;2023-06-26T06:40:04;99071.00;;;25.18;58.10
43488;BME280;29078;41.932;25.554;2023-06-26T06:42:31;99081.81;;;25.18;58.57
43488;BME280;29078;41.932;25.554;2023-06-26T06:44:57;99082.03;;;25.22;58.53
43488;BME280;29078;41.932;25.554;2023-06-26T06:47:22;99094.16;;;25.29;58.66
43488;BME280;29078;41.932;25.554;2023-06-26T06:49:48;99113.03;;;25.34;58.76
43488;BME280;29078;41.932;25.554;2023-06-26T06:52:13;99078.59;;;25.16;58.46
43488;BME280;29078;41.932;25.554;2023-06-26T06:54:56;99068.91;;;25.10;58.86
43488;BME280;29078;41.932;25.554;2023-06-26T06:57:24;99077.22;;;25.19;58.51
43488;BME280;29078;41.932;25.554;2023-06-26T06:59:50;99103.47;;;25.42;58.41
43488;BME280;29078;41.932;25.554;2023-06-26T07:02:19;99035.78;;;24.99;57.96
43488;BME280;29078;41.932;25.554;2023-06-26T07:04:44;99110.16;;;25.50;57.93
43488;BME280;29078;41.932;25.554;2023-06-26T07:07:09;99091.06;;;25.41;57.66
43488;BME280;29078;41.932;25.554;2023-06-26T07:09:36;99106.84;;;25.58;57.46
43488;BME280;29078;41.932;25.554;2023-06-26T07:12:01;99081.47;;;25.54;56.75
43488;BME280;29078;41.932;25.554;2023-06-26T07:14:28;99072.31;;;25.50;56.70
43488;BME280;29078;41.932;25.554;2023-06-26T07:16:53;99095.75;;;25.83;56.67
43488;BME280;29078;41.932;25.554;2023-06-26T07:19:18;99096.63;;;26.03;56.31
43488;BME280;29078;41.932;25.554;2023-06-26T07:21:44;99090.28;;;26.12;55.29
43488;BME280;29078;41.932;25.554;2023-06-26T07:24:11;99108.91;;;26.38;54.22
43488;BME280;29078;41.932;25.554;2023-06-26T07:26:36;99026.63;;;25.96;53.34
43488;BME280;29078;41.932;25.554;2023-06-26T07:29:02;99041.78;;;26.16;53.43
43488;BME280;29078;41.932;25.554;2023-06-26T07:31:28;99097.84;;;26.72;52.67
43488;BME280;29078;41.932;25.554;2023-06-26T07:33:53;99043.66;;;26.39;52.26
43488;BME280;29078;41.932;25.554;2023-06-26T07:36:18;99098.59;;;26.77;52.12
43488;BME280;29078;41.932;25.554;2023-06-26T07:38:44;99090.47;;;26.77;51.79
43488;BME280;29078;41.932;25.554;2023-06-26T07:41:09;99052.47;;;26.64;51.54
43488;BME280;29078;41.932;25.554;2023-06-26T07:43:35;99058.31;;;26.71;51.37
43488;BME280;29078;41.932;25.554;2023-06-26T07:46:00;99101.00;;;26.98;51.00
43488;BME280;29078;41.932;25.554;2023-06-26T07:48:25;99077.47;;;26.93;50.97
43488;BME280;29078;41.932;25.554;2023-06-26T07:50:51;99102.84;;;27.16;50.57
43488;BME280;29078;41.932;25.554;2023-06-26T07:53:16;99089.91;;;27.13;50.35
43488;BME280;29078;41.932;25.554;2023-06-26T07:55:43;99107.38;;;27.20;49.93
43488;BME280;29078;41.932;25.554;2023-06-26T07:58:08;99075.22;;;27.00;49.94
43488;BME280;29078;41.932;25.554;2023-06-26T08:00:34;99088.38;;;27.07;50.06
43488;BME280;29078;41.932;25.554;2023-06-26T08:02:59;99079.22;;;27.03;49.76
43488;BME280;29078;41.932;25.554;2023-06-26T08:05:25;99074.97;;;26.97;49.96
43488;BME280;29078;41.932;25.554;2023-06-26T08:07:50;99062.75;;;26.99;49.85
43488;BME280;29078;41.932;25.554;2023-06-26T08:10:16;99077.16;;;27.27;49.88
43488;BME280;29078;41.932;25.554;2023-06-26T08:12:42;99124.63;;;27.57;49.80
43488;BME280;29078;41.932;25.554;2023-06-26T08:15:10;99127.78;;;27.64;49.25
43488;BME280;29078;41.932;25.554;2023-06-26T08:17:37;99122.44;;;27.59;48.55
43488;BME280;29078;41.932;25.554;2023-06-26T08:20:03;99105.28;;;27.31;48.50
43488;BME280;29078;41.932;25.554;2023-06-26T08:22:31;99119.47;;;27.42;48.83
43488;BME280;29078;41.932;25.554;2023-06-26T08:24:56;99082.47;;;27.18;48.78
43488;BME280;29078;41.932;25.554;2023-06-26T08:27:22;99106.59;;;27.34;47.93
43488;BME280;29078;41.932;25.554;2023-06-26T08:29:47;99078.38;;;27.21;47.99
43488;BME280;29078;41.932;25.554;2023-06-26T08:32:13;99073.97;;;27.25;48.18
43488;BME280;29078;41.932;25.554;2023-06-26T08:34:38;99069.66;;;27.38;47.66
43488;BME280;29078;41.932;25.554;2023-06-26T08:37:04;99129.19;;;27.89;47.92
43488;BME280;29078;41.932;25.554;2023-06-26T08:39:29;99127.28;;;27.90;46.90
43488;BME280;29078;41.932;25.554;2023-06-26T08:41:55;99125.59;;;27.94;46.85
43488;BME280;29078;41.932;25.554;2023-06-26T08:44:20;99125.28;;;27.95;47.13
43488;BME280;29078;41.932;25.554;2023-06-26T08:46:50;99080.66;;;27.74;46.91
43488;BME280;29078;41.932;25.554;2023-06-26T08:49:29;99118.44;;;27.84;46.57
43488;BME280;29078;41.932;25.554;2023-06-26T08:52:40;99076.19;;;27.37;46.95
43488;BME280;29078;41.932;25.554;2023-06-26T08:54:58;99123.06;;;27.83;46.86
43488;BME280;29078;41.932;25.554;2023-06-26T08:57:25;99091.72;;;27.64;47.18
43488;BME280;29078;41.932;25.554;2023-06-26T08:59:51;99135.63;;;27.93;46.19
43488;BME280;29078;41.932;25.554;2023-06-26T09:02:17;99103.47;;;27.87;46.08
43488;BME280;29078;41.932;25.554;2023-06-26T09:04:42;99133.81;;;28.02;46.52
43488;BME280;29078;41.932;25.554;2023-06-26T09:07:08;99112.91;;;27.75;45.90
43488;BME280;29078;41.932;25.554;2023-06-26T09:09:35;99048.47;;;27.40;46.14
43488;BME280;29078;41.932;25.554;2023-06-26T09:12:02;99106.00;;;27.83;45.98
43488;BME280;29078;41.932;25.554;2023-06-26T09:14:28;99065.91;;;27.66;45.82
43488;BME280;29078;41.932;25.554;2023-06-26T09:16:57;99122.97;;;28.02;46.05
43488;BME280;29078;41.932;25.554;2023-06-26T09:19:22;99130.00;;;28.03;45.50
43488;BME280;29078;41.932;25.554;2023-06-26T09:21:50;99136.53;;;28.02;45.34
43488;BME280;29078;41.932;25.554;2023-06-26T09:24:16;99098.84;;;27.87;45.60
43488;BME280;29078;41.932;25.554;2023-06-26T09:26:42;99121.06;;;27.89;46.01
43488;BME280;29078;41.932;25.554;2023-06-26T09:29:10;99069.91;;;27.55;45.96
43488;BME280;29078;41.932;25.554;2023-06-26T09:31:37;99094.59;;;27.53;46.60
43488;BME280;29078;41.932;25.554;2023-06-26T09:34:02;99122.88;;;27.80;46.52
43488;BME280;29078;41.932;25.554;2023-06-26T09:36:29;99131.50;;;27.68;46.57
43488;BME280;29078;41.932;25.554;2023-06-26T09:39:04;99105.25;;;27.50;46.68
43488;BME280;29078;41.932;25.554;2023-06-26T09:41:36;99128.28;;;27.80;46.88
43488;BME280;29078;41.932;25.554;2023-06-26T09:44:04;99141.25;;;27.83;46.75
43488;BME280;29078;41.932;25.554;2023-06-26T09:46:30;99080.75;;;27.55;47.31
43488;BME280;29078;41.932;25.554;2023-06-26T09:49:10;99060.66;;;27.56;46.43
43488;BME280;29078;41.932;25.554;2023-06-26T09:51:39;99103.78;;;27.85;46.05
43488;BME280;29078;41.932;25.554;2023-06-26T09:54:05;99101.38;;;27.83;45.73
43488;BME280;29078;41.932;25.554;2023-06-26T09:56:34;99144.88;;;27.92;45.96
43488;BME280;29078;41.932;25.554;2023-06-26T09:59:03;99097.91;;;27.50;45.73
43488;BME280;29078;41.932;25.554;2023-06-26T10:01:30;99144.06;;;27.92;45.73
43488;BME280;29078;41.932;25.554;2023-06-26T10:03:57;99083.28;;;27.65;45.34
43488;BME280;29078;41.932;25.554;2023-06-26T10:06:36;99134.91;;;28.01;45.16
43488;BME280;29078;41.932;25.554;2023-06-26T10:09:03;99097.16;;;27.77;45.38
43488;BME280;29078;41.932;25.554;2023-06-26T10:11:47;99132.09;;;28.20;45.67
43488;BME280;29078;41.932;25.554;2023-06-26T10:14:14;99070.47;;;28.07;45.17
43488;BME280;29078;41.932;25.554;2023-06-26T10:16:41;99118.50;;;28.84;44.82
43488;BME280;29078;41.932;25.554;2023-06-26T10:19:10;99077.53;;;28.80;44.57
43488;BME280;29078;41.932;25.554;2023-06-26T10:21:38;99124.97;;;29.41;43.82
43488;BME280;29078;41.932;25.554;2023-06-26T10:24:06;99073.06;;;29.29;42.94
43488;BME280;29078;41.932;25.554;2023-06-26T10:26:35;99123.06;;;29.72;41.67
43488;BME280;29078;41.932;25.554;2023-06-26T10:29:03;99070.47;;;29.46;41.82
43488;BME280;29078;41.932;25.554;2023-06-26T10:31:29;99104.91;;;29.99;40.66
43488;BME280;29078;41.932;25.554;2023-06-26T10:33:55;99067.44;;;29.96;40.37
43488;BME280;29078;41.932;25.554;2023-06-26T10:36:28;99120.38;;;30.29;40.50
43488;BME280;29078;41.932;25.554;2023-06-26T10:38:59;99079.19;;;30.22;40.13
43488;BME280;29078;41.932;25.554;2023-06-26T10:41:36;99057.44;;;30.48;39.85
43488;BME280;29078;41.932;25.554;2023-06-26T10:46:27;99110.47;;;31.03;39.31
43488;BME280;29078;41.932;25.554;2023-06-26T10:48:58;99093.50;;;30.88;38.83
43488;BME280;29078;41.932;25.554;2023-06-26T10:51:26;99102.16;;;30.90;38.64
43488;BME280;29078;41.932;25.554;2023-06-26T10:53:55;99095.72;;;31.04;37.55
43488;BME280;29078;41.932;25.554;2023-06-26T10:56:42;99077.09;;;31.06;37.52
43488;BME280;29078;41.932;25.554;2023-06-26T10:59:13;99096.44;;;31.47;37.61
43488;BME280;29078;41.932;25.554;2023-06-26T11:01:43;99089.25;;;31.81;37.45
43488;BME280;29078;41.932;25.554;2023-06-26T11:04:09;99069.91;;;31.95;36.69
43488;BME280;29078;41.932;25.554;2023-06-26T11:06:44;99087.03;;;32.33;36.50
43488;BME280;29078;41.932;25.554;2023-06-26T11:09:15;99072.97;;;32.43;36.26
43488;BME280;29078;41.932;25.554;2023-06-26T11:14:19;99015.47;;;32.40;35.77
43488;BME280;29078;41.932;25.554;2023-06-26T11:16:45;99020.78;;;32.57;35.80
43488;BME280;29078;41.932;25.554;2023-06-26T11:19:11;99019.50;;;32.75;35.21
43488;BME280;29078;41.932;25.554;2023-06-26T11:21:40;99083.41;;;33.04;35.26
43488;BME280;29078;41.932;25.554;2023-06-26T11:24:09;99023.09;;;32.88;34.52
43488;BME280;29078;41.932;25.554;2023-06-26T11:29:04;99048.38;;;32.43;35.92
43488;BME280;29078;41.932;25.554;2023-06-26T11:31:31;99066.13;;;32.79;35.61
43488;BME280;29078;41.932;25.554;2023-06-26T11:34:02;99072.94;;;33.06;34.73
43488;BME280;29078;41.932;25.554;2023-06-26T11:36:28;99073.03;;;33.09;34.45
43488;BME280;29078;41.932;25.554;2023-06-26T11:41:20;99038.59;;;32.42;35.34
43488;BME280;29078;41.932;25.554;2023-06-26T11:43:46;99030.28;;;31.88;36.41
43488;BME280;29078;41.932;25.554;2023-06-26T11:46:12;99004.72;;;31.34;36.73
43488;BME280;29078;41.932;25.554;2023-06-26T11:48:37;99080.25;;;31.42;37.31
43488;BME280;29078;41.932;25.554;2023-06-26T11:51:06;99022.16;;;30.86;37.91
43488;BME280;29078;41.932;25.554;2023-06-26T11:53:39;99057.31;;;31.43;37.89
43488;BME280;29078;41.932;25.554;2023-06-26T11:56:11;98989.50;;;31.54;37.08
43488;BME280;29078;41.932;25.554;2023-06-26T11:58:56;99066.16;;;32.08;37.36
43488;BME280;29078;41.932;25.554;2023-06-26T12:01:22;99051.69;;;31.78;37.04
43488;BME280;29078;41.932;25.554;2023-06-26T12:03:49;99024.94;;;31.33;37.42
43488;BME280;29078;41.932;25.554;2023-06-26T12:06:15;99074.44;;;31.52;37.51
43488;BME280;29078;41.932;25.554;2023-06-26T12:08:41;99042.59;;;31.18;37.94
43488;BME280;29078;41.932;25.554;2023-06-26T12:11:07;98972.81;;;30.62;38.40
43488;BME280;29078;41.932;25.554;2023-06-26T12:13:33;99030.31;;;30.86;38.27
43488;BME280;29078;41.932;25.554;2023-06-26T12:15:59;99074.06;;;31.07;38.83
43488;BME280;29078;41.932;25.554;2023-06-26T12:18:34;99020.41;;;30.56;39.52
43488;BME280;29078;41.932;25.554;2023-06-26T12:20:59;99079.91;;;30.62;40.66
43488;BME280;29078;41.932;25.554;2023-06-26T12:23:33;99013.94;;;29.91;41.24
43488;BME280;29078;41.932;25.554;2023-06-26T12:25:59;99040.19;;;29.87;41.93
43488;BME280;29078;41.932;25.554;2023-06-26T12:28:24;99103.22;;;30.12;41.84
43488;BME280;29078;41.932;25.554;2023-06-26T12:31:15;99110.03;;;30.00;42.99
43488;BME280;29078;41.932;25.554;2023-06-26T12:33:43;99104.09;;;29.90;42.62
43488;BME280;29078;41.932;25.554;2023-06-26T12:36:12;99003.09;;;29.12;43.05
43488;BME280;29078;41.932;25.554;2023-06-26T12:38:38;99111.81;;;29.65;43.19
43488;BME280;29078;41.932;25.554;2023-06-26T12:41:03;99110.22;;;29.64;43.62
43488;BME280;29078;41.932;25.554;2023-06-26T12:43:28;99076.31;;;29.39;43.75
43488;BME280;29078;41.932;25.554;2023-06-26T12:45:57;99079.13;;;29.48;43.65
43488;BME280;29078;41.932;25.554;2023-06-26T12:48:42;99105.13;;;29.71;43.69
43488;BME280;29078;41.932;25.554;2023-06-26T12:51:13;99048.63;;;29.37;43.58
43488;BME280;29078;41.932;25.554;2023-06-26T12:53:40;99101.84;;;29.83;43.25
43488;BME280;29078;41.932;25.554;2023-06-26T12:56:09;99018.00;;;29.54;42.91
43488;BME280;29078;41.932;25.554;2023-06-26T12:58:37;99004.06;;;29.47;42.20
43488;BME280;29078;41.932;25.554;2023-06-26T13:01:04;99070.94;;;29.88;42.39
43488;BME280;29078;41.932;25.554;2023-06-26T13:03:30;99049.88;;;29.62;42.41